createdAt,value
2019-04-14T00:00:42.690Z,3.60
2019-04-14T00:03:15.096Z,3.60
2019-04-14T00:05:48.161Z,3.60
2019-04-14T00:08:17.954Z,3.60
2019-04-14T00:10:50.781Z,3.60
2019-04-14T00:13:21.686Z,3.60
2019-04-14T00:15:52.326Z,3.60
2019-04-14T00:18:23.073Z,3.70
2019-04-14T00:20:53.430Z,3.70
2019-04-14T00:23:23.731Z,3.80
2019-04-14T00:25:54.412Z,3.80
2019-04-14T00:28:25.001Z,3.80
2019-04-14T00:30:55.580Z,3.90
2019-04-14T00:33:28.105Z,3.90
2019-04-14T00:36:00.228Z,3.90
2019-04-14T00:38:32.322Z,3.90
2019-04-14T00:41:05.034Z,3.90
2019-04-14T00:43:37.415Z,3.90
2019-04-14T00:46:12.472Z,3.80
2019-04-14T00:48:43.057Z,3.80
2019-04-14T00:51:13.410Z,3.80
2019-04-14T00:53:43.156Z,3.70
2019-04-14T00:56:15.069Z,3.70
2019-04-14T00:58:45.342Z,3.70
2019-04-14T01:01:15.494Z,3.70
2019-04-14T01:03:46.508Z,3.70
2019-04-14T01:06:16.424Z,3.70
2019-04-14T01:08:46.813Z,3.60
2019-04-14T01:11:18.097Z,3.60
2019-04-14T01:13:48.631Z,3.60
2019-04-14T01:16:21.691Z,3.60
2019-04-14T01:18:50.016Z,3.60
2019-04-14T01:21:19.730Z,3.50
2019-04-14T01:23:50.351Z,3.40
2019-04-14T01:26:20.367Z,3.30
2019-04-14T01:28:52.585Z,3.30
2019-04-14T01:31:23.053Z,3.30
2019-04-14T01:33:53.369Z,3.30
2019-04-14T01:36:25.517Z,3.30
2019-04-14T01:38:55.726Z,3.20
2019-04-14T01:41:26.074Z,3.20
2019-04-14T01:43:56.088Z,3.20
2019-04-14T01:46:29.527Z,3.20
2019-04-14T01:48:58.531Z,3.20
2019-04-14T01:51:30.967Z,3.20
2019-04-14T01:54:03.950Z,3.20
2019-04-14T01:56:36.281Z,3.20
2019-04-14T01:59:08.730Z,3.30
2019-04-14T02:01:41.101Z,3.20
2019-04-14T02:04:12.136Z,3.20
2019-04-14T02:06:41.969Z,3.20
2019-04-14T02:09:12.143Z,3.20
2019-04-14T02:11:42.352Z,3.30
2019-04-14T02:14:14.785Z,3.30
2019-04-14T02:16:50.198Z,3.30
2019-04-14T02:19:15.868Z,3.30
2019-04-14T02:21:45.740Z,3.40
2019-04-14T02:24:17.865Z,3.40
2019-04-14T02:26:48.044Z,3.40
2019-04-14T02:29:19.005Z,3.40
2019-04-14T02:32:17.327Z,3.50
2019-04-14T02:34:51.438Z,3.50
2019-04-14T02:37:19.654Z,3.40
2019-04-14T02:39:54.460Z,3.50
2019-04-14T02:49:56.202Z,3.50
2019-04-14T02:52:30.151Z,3.50
2019-04-14T02:54:59.460Z,3.50
2019-04-14T02:57:30.376Z,3.50
2019-04-14T03:00:07.889Z,3.50
2019-04-14T03:05:01.834Z,3.50
2019-04-14T03:10:12.664Z,3.50
2019-04-14T03:15:15.586Z,3.50
2019-04-14T03:22:56.069Z,3.60
2019-04-14T03:25:21.117Z,3.60
2019-04-14T03:28:04.253Z,3.60
2019-04-14T03:30:57.841Z,3.50
2019-04-14T03:38:14.613Z,3.50
2019-04-14T03:40:45.232Z,3.50
2019-04-14T03:43:18.363Z,3.50
2019-04-14T03:46:04.742Z,3.40
2019-04-14T03:50:48.594Z,3.50
2019-04-14T03:53:22.137Z,3.40
2019-04-14T03:55:37.070Z,3.50
2019-04-14T03:57:58.935Z,3.40
2019-04-14T04:00:31.358Z,3.40
2019-04-14T04:03:02.007Z,3.40
2019-04-14T04:05:32.404Z,3.40
2019-04-14T04:08:02.767Z,3.50
2019-04-14T04:10:33.746Z,3.40
2019-04-14T04:13:04.076Z,3.40
2019-04-14T04:15:34.627Z,3.40
2019-04-14T04:18:07.485Z,3.40
2019-04-14T04:20:39.119Z,3.50
2019-04-14T04:23:09.558Z,3.40
2019-04-14T04:25:41.952Z,3.40
2019-04-14T04:28:14.471Z,3.40
2019-04-14T04:30:47.024Z,3.40
2019-04-14T04:33:18.383Z,3.30
2019-04-14T04:35:50.057Z,3.40
2019-04-14T04:38:22.378Z,3.30
2019-04-14T04:40:53.058Z,3.30
2019-04-14T04:43:25.453Z,3.30
2019-04-14T04:45:55.948Z,3.20
2019-04-14T04:48:26.381Z,3.20
2019-04-14T04:50:56.421Z,3.30
2019-04-14T04:53:28.706Z,3.30
2019-04-14T04:55:59.282Z,3.30
2019-04-14T04:58:32.844Z,3.20
2019-04-14T05:01:03.488Z,3.10
2019-04-14T05:03:33.967Z,3.10
2019-04-14T05:06:07.102Z,3.10
2019-04-14T05:08:41.220Z,3.10
2019-04-14T05:11:14.302Z,3.10
2019-04-14T05:13:46.806Z,3.10
2019-04-14T05:16:17.120Z,3.10
2019-04-14T05:18:46.899Z,3.00
2019-04-14T05:21:17.122Z,2.90
2019-04-14T05:23:47.409Z,3.00
2019-04-14T05:26:17.845Z,3.00
2019-04-14T05:28:50.661Z,3.00
2019-04-14T05:31:20.794Z,2.90
2019-04-14T05:33:51.172Z,3.00
2019-04-14T05:36:21.476Z,3.00
2019-04-14T05:38:51.800Z,3.00
2019-04-14T05:41:22.297Z,2.90
2019-04-14T05:43:57.075Z,2.90
2019-04-14T05:46:23.608Z,2.90
2019-04-14T05:48:53.674Z,2.90
2019-04-14T05:51:24.879Z,2.90
2019-04-14T05:53:56.677Z,2.90
2019-04-14T05:56:29.537Z,2.90
2019-04-14T05:59:00.133Z,3.00
2019-04-14T06:01:30.069Z,2.90
2019-04-14T06:04:00.357Z,2.90
2019-04-14T06:06:31.736Z,2.90
2019-04-14T06:09:01.628Z,2.90
2019-04-14T06:11:31.308Z,2.80
2019-04-14T06:14:01.127Z,2.90
2019-04-14T06:16:30.956Z,2.90
2019-04-14T06:19:01.070Z,2.90
2019-04-14T06:21:31.065Z,2.80
2019-04-14T06:24:05.420Z,2.80
2019-04-14T06:26:35.997Z,2.70
2019-04-14T06:29:06.137Z,2.70
2019-04-14T06:31:37.737Z,2.70
2019-04-14T06:34:12.739Z,2.60
2019-04-14T06:36:44.204Z,2.60
2019-04-14T06:39:17.470Z,2.50
2019-04-14T06:41:47.319Z,2.40
2019-04-14T06:44:23.378Z,2.30
2019-04-14T06:49:49.776Z,2.20
2019-04-14T06:52:19.817Z,2.20
2019-04-14T06:54:49.771Z,2.20
2019-04-14T06:57:19.695Z,2.20
2019-04-14T06:59:49.994Z,2.20
2019-04-14T07:02:19.837Z,2.20
2019-04-14T07:04:49.655Z,2.20
2019-04-14T07:07:19.696Z,2.20
2019-04-14T07:09:49.711Z,2.30
2019-04-14T07:12:19.895Z,2.30
2019-04-14T07:14:50.269Z,2.30
2019-04-14T07:21:08.166Z,2.30
2019-04-14T07:23:38.028Z,2.20
2019-04-14T07:26:10.907Z,2.20
2019-04-14T07:28:56.128Z,2.20
2019-04-14T07:31:21.098Z,2.20
2019-04-14T07:33:55.709Z,2.10
2019-04-14T07:36:27.282Z,2.20
2019-04-14T07:38:59.103Z,2.20
2019-04-14T07:41:33.556Z,2.20
2019-04-14T07:44:10.686Z,2.30
2019-04-14T07:46:42.567Z,2.20
2019-04-14T07:49:15.158Z,2.20
2019-04-14T07:51:48.937Z,2.10
2019-04-14T07:54:26.441Z,2.10
2019-04-14T08:09:35.749Z,2.00
2019-04-14T08:13:00.366Z,2.10
2019-04-14T08:15:29.939Z,2.10
2019-04-14T08:22:37.513Z,2.10
2019-04-14T08:26:02.278Z,2.10
2019-04-14T08:35:44.178Z,2.20
2019-04-14T08:52:37.806Z,2.50
2019-04-14T08:55:29.369Z,2.50
2019-04-14T09:02:23.964Z,2.50
2019-04-14T09:05:11.336Z,2.60
2019-04-14T09:07:43.946Z,2.50
2019-04-14T09:10:15.686Z,2.60
2019-04-14T09:12:47.319Z,2.50
2019-04-14T09:15:17.319Z,2.50
2019-04-14T09:17:47.220Z,2.50
2019-04-14T09:20:20.463Z,2.50
2019-04-14T09:22:53.146Z,2.60
2019-04-14T09:25:24.646Z,2.70
2019-04-14T09:38:43.241Z,2.90
2019-04-14T09:45:15.381Z,2.70
2019-04-14T09:55:25.638Z,2.70
2019-04-14T09:57:55.250Z,2.70
2019-04-14T10:04:32.610Z,2.70
2019-04-14T10:11:17.735Z,2.70
2019-04-14T10:24:12.660Z,2.70
2019-04-14T10:26:54.910Z,2.70
2019-04-14T10:33:14.098Z,2.90
2019-04-14T10:35:45.615Z,2.80
2019-04-14T10:38:15.685Z,2.80
2019-04-14T10:40:45.617Z,2.80
2019-04-14T10:43:16.743Z,2.70
2019-04-14T10:45:46.828Z,2.80
2019-04-14T10:48:19.556Z,2.80
2019-04-14T10:50:49.467Z,2.80
2019-04-14T10:53:19.742Z,2.80
2019-04-14T10:55:51.651Z,2.70
2019-04-14T10:58:22.909Z,2.80
2019-04-14T11:00:55.120Z,2.90
2019-04-14T11:06:26.752Z,2.80
2019-04-14T11:08:59.427Z,2.80
2019-04-14T11:11:31.573Z,2.90
2019-04-14T11:14:15.636Z,2.90
2019-04-14T11:17:01.618Z,2.90
2019-04-14T11:36:39.396Z,3.10
2019-04-14T11:49:40.518Z,3.20
2019-04-14T11:52:13.379Z,3.20
2019-04-14T11:54:59.458Z,3.10
2019-04-14T11:57:29.913Z,3.10
2019-04-14T12:00:06.227Z,3.10
2019-04-14T12:02:38.029Z,3.10
2019-04-14T12:05:11.296Z,3.10
2019-04-14T12:10:38.158Z,3.00
2019-04-14T12:13:16.258Z,3.10
2019-04-14T12:15:53.952Z,3.20
2019-04-14T12:18:26.312Z,3.30
2019-04-14T12:23:52.154Z,3.30
2019-04-14T12:26:22.245Z,3.40
2019-04-14T12:28:54.148Z,3.40
2019-04-14T12:31:28.942Z,3.40
2019-04-14T12:37:10.085Z,3.40
2019-04-14T12:44:07.890Z,3.30
2019-04-14T12:51:08.160Z,3.40
2019-04-14T12:53:40.814Z,3.40
2019-04-14T12:56:15.009Z,3.50
2019-04-14T12:58:50.765Z,3.50
2019-04-14T13:01:26.800Z,3.50
2019-04-14T13:11:39.656Z,3.50
2019-04-14T13:14:20.237Z,3.50
2019-04-14T13:16:53.873Z,3.60
2019-04-14T13:19:29.350Z,3.70
2019-04-14T13:24:51.894Z,3.60
2019-04-14T13:30:18.398Z,3.70
2019-04-14T13:32:55.455Z,3.70
2019-04-14T13:39:36.992Z,3.80
2019-04-14T13:45:36.109Z,3.90
2019-04-14T13:48:23.893Z,4.00
2019-04-14T13:54:40.417Z,4.00
2019-04-14T14:11:51.348Z,4.00
2019-04-14T14:20:54.336Z,3.90
2019-04-14T14:26:54.524Z,3.80
2019-04-14T14:29:43.553Z,3.90
2019-04-14T14:32:51.808Z,3.80
2019-04-14T14:39:23.443Z,3.80
2019-04-14T14:42:21.409Z,3.80
2019-04-14T14:55:33.593Z,3.70
2019-04-14T15:02:01.804Z,3.80
2019-04-14T15:15:38.975Z,3.90
2019-04-14T15:18:58.366Z,3.90
2019-04-14T15:21:36.995Z,3.90
2019-04-14T15:24:18.991Z,3.90
2019-04-14T15:47:50.795Z,3.90
2019-04-14T16:11:56.571Z,4.10
2019-04-14T16:15:14.915Z,4.00
2019-04-14T16:24:03.451Z,4.00
2019-04-14T16:29:30.645Z,4.00
2019-04-14T16:35:19.287Z,3.90
2019-04-14T16:45:52.326Z,4.10
2019-04-14T16:58:08.066Z,3.90
2019-04-14T17:00:43.590Z,3.90
2019-04-14T17:06:04.013Z,3.80
2019-04-14T17:08:35.850Z,3.80
2019-04-14T17:11:25.724Z,3.80
2019-04-14T17:17:24.419Z,3.80
2019-04-14T17:20:07.469Z,3.80
2019-04-14T17:22:51.188Z,3.80
2019-04-14T17:25:20.533Z,3.80
2019-04-14T17:44:02.847Z,3.70
2019-04-14T17:53:22.975Z,3.60
2019-04-14T18:21:48.751Z,3.70
2019-04-14T18:24:42.597Z,3.70
2019-04-14T18:27:09.595Z,3.70
2019-04-14T19:04:02.518Z,3.60
2019-04-14T19:06:51.719Z,3.60
2019-04-14T19:09:40.615Z,3.60
2019-04-14T19:18:41.926Z,3.60
2019-04-14T19:21:25.368Z,3.70
2019-04-14T19:23:54.998Z,3.70
2019-04-14T19:26:43.929Z,3.60
2019-04-14T19:29:13.556Z,3.60
2019-04-14T19:32:03.438Z,3.60
2019-04-14T19:34:53.326Z,3.60
2019-04-14T19:37:22.964Z,3.60
2019-04-14T19:40:11.976Z,3.60
2019-04-14T19:43:01.860Z,3.50
2019-04-14T19:45:50.766Z,3.50
2019-04-14T19:48:40.590Z,3.50
2019-04-14T19:51:29.568Z,3.50
2019-04-14T19:54:30.838Z,3.50
2019-04-14T19:57:29.487Z,3.40
2019-04-14T20:00:18.509Z,3.50
2019-04-14T20:03:07.473Z,3.40
2019-04-14T20:05:59.000Z,3.40
2019-04-14T20:08:47.939Z,3.40
2019-04-14T20:11:36.844Z,3.40
2019-04-14T20:14:25.841Z,3.40
2019-04-14T20:16:55.129Z,3.50
2019-04-14T20:19:38.676Z,3.60
2019-04-14T20:34:45.347Z,3.60
2019-04-14T20:37:15.391Z,3.60
2019-04-14T20:39:44.899Z,3.60
2019-04-14T20:42:33.811Z,3.60
2019-04-14T20:45:24.114Z,3.60
2019-04-14T20:48:12.966Z,3.60
2019-04-14T20:50:42.522Z,3.60
2019-04-14T20:53:31.397Z,3.60
2019-04-14T20:56:20.336Z,3.60
2019-04-14T20:59:09.313Z,3.70
2019-04-14T21:23:12.475Z,3.50
2019-04-14T21:32:34.255Z,3.50
2019-04-14T21:35:24.848Z,3.50
2019-04-14T21:44:19.471Z,3.70
2019-04-14T21:46:49.027Z,3.80
2019-04-14T21:49:38.922Z,3.70
2019-04-14T21:56:13.408Z,3.70
2019-04-14T22:14:52.761Z,3.70
2019-04-14T22:17:22.312Z,3.70
2019-04-14T22:20:03.401Z,3.60
2019-04-14T22:22:52.332Z,3.70
2019-04-14T22:25:21.878Z,3.70
2019-04-14T22:27:51.511Z,3.60
2019-04-14T22:30:41.060Z,3.60
2019-04-14T22:33:29.980Z,3.60
2019-04-14T22:36:18.879Z,3.60
2019-04-14T22:42:23.188Z,3.60
2019-04-14T22:45:31.082Z,3.60
2019-04-14T22:48:00.636Z,3.50
2019-04-14T22:50:49.533Z,3.50
2019-04-14T22:53:39.245Z,3.40
2019-04-14T22:56:39.126Z,3.50
2019-04-14T22:59:20.002Z,3.50
2019-04-14T23:15:11.619Z,3.40
2019-04-14T23:20:56.019Z,3.40
2019-04-14T23:27:01.055Z,3.30
2019-04-14T23:29:50.040Z,3.20
2019-04-14T23:32:39.210Z,3.10
2019-04-14T23:35:47.521Z,3.00
2019-04-14T23:38:36.414Z,3.00
2019-04-14T23:41:06.048Z,3.00
2019-04-14T23:43:54.998Z,3.00
2019-04-14T23:46:43.908Z,2.90
2019-04-14T23:49:32.795Z,2.80
2019-04-14T23:52:21.743Z,2.70
2019-04-14T23:55:10.879Z,2.70
2019-04-14T23:58:02.810Z,2.70
